sensor_id;sensor_type;location;lat;lon;timestamp;P1;durP1;ratioP1;P2;durP2;ratioP2
2386;SDS011;49473;50.772;8.768;2023-05-10T00:00:56;4.20;;;3.90;;
2386;SDS011;49473;50.772;8.768;2023-05-10T00:03:23;4.17;;;3.80;;
2386;SDS011;49473;50.772;8.768;2023-05-10T00:05:50;4.57;;;4.10;;
2386;SDS011;49473;50.772;8.768;2023-05-10T00:08:16;4.73;;;3.63;;
2386;SDS011;49473;50.772;8.768;2023-05-10T00:10:45;3.57;;;3.37;;
2386;SDS011;49473;50.772;8.768;2023-05-10T00:13:11;3.93;;;3.60;;
2386;SDS011;49473;50.772;8.768;2023-05-10T00:15:39;4.60;;;4.30;;
2386;SDS011;49473;50.772;8.768;2023-05-10T00:18:05;4.30;;;4.00;;
2386;SDS011;49473;50.772;8.768;2023-05-10T00:20:32;4.43;;;4.13;;
2386;SDS011;49473;50.772;8.768;2023-05-10T00:22:59;3.97;;;3.67;;
2386;SDS011;49473;50.772;8.768;2023-05-10T00:25:26;4.50;;;4.20;;
2386;SDS011;49473;50.772;8.768;2023-05-10T00:27:54;4.20;;;3.90;;
2386;SDS011;49473;50.772;8.768;2023-05-10T00:30:22;4.20;;;3.90;;
2386;SDS011;49473;50.772;8.768;2023-05-10T00:32:49;5.97;;;5.57;;
2386;SDS011;49473;50.772;8.768;2023-05-10T00:35:16;6.30;;;5.80;;
2386;SDS011;49473;50.772;8.768;2023-05-10T00:37:43;6.90;;;6.30;;
2386;SDS011;49473;50.772;8.768;2023-05-10T00:40:10;3.93;;;0.97;;
2386;SDS011;49473;50.772;8.768;2023-05-10T00:42:37;1.20;;;1.10;;
2386;SDS011;49473;50.772;8.768;2023-05-10T00:45:06;0.80;;;0.80;;
2386;SDS011;49473;50.772;8.768;2023-05-10T00:47:33;0.63;;;0.63;;
2386;SDS011;49473;50.772;8.768;2023-05-10T00:50:01;0.80;;;0.53;;
2386;SDS011;49473;50.772;8.768;2023-05-10T00:52:28;1.00;;;0.60;;
2386;SDS011;49473;50.772;8.768;2023-05-10T00:54:55;0.60;;;0.60;;
2386;SDS011;49473;50.772;8.768;2023-05-10T00:57:22;1.10;;;0.80;;
2386;SDS011;49473;50.772;8.768;2023-05-10T00:59:50;0.70;;;0.70;;
2386;SDS011;49473;50.772;8.768;2023-05-10T01:02:18;1.43;;;0.90;;
2386;SDS011;49473;50.772;8.768;2023-05-10T01:04:45;1.03;;;0.50;;
2386;SDS011;49473;50.772;8.768;2023-05-10T01:07:12;1.70;;;0.57;;
2386;SDS011;49473;50.772;8.768;2023-05-10T01:09:39;4.83;;;0.73;;
2386;SDS011;49473;50.772;8.768;2023-05-10T01:12:06;2.10;;;0.70;;
2386;SDS011;49473;50.772;8.768;2023-05-10T01:14:33;4.33;;;0.50;;
2386;SDS011;49473;50.772;8.768;2023-05-10T01:17:02;1.27;;;0.60;;
2386;SDS011;49473;50.772;8.768;2023-05-10T01:19:30;2.00;;;0.50;;
2386;SDS011;49473;50.772;8.768;2023-05-10T01:22:02;0.70;;;0.50;;
2386;SDS011;49473;50.772;8.768;2023-05-10T01:24:59;1.03;;;0.43;;
2386;SDS011;49473;50.772;8.768;2023-05-10T01:31:03;1.33;;;0.47;;
2386;SDS011;49473;50.772;8.768;2023-05-10T01:33:37;1.13;;;0.40;;
2386;SDS011;49473;50.772;8.768;2023-05-10T01:36:08;0.60;;;0.40;;
2386;SDS011;49473;50.772;8.768;2023-05-10T01:38:43;0.70;;;0.50;;
2386;SDS011;49473;50.772;8.768;2023-05-10T01:41:17;4.13;;;0.40;;
2386;SDS011;49473;50.772;8.768;2023-05-10T01:43:53;0.67;;;0.30;;
2386;SDS011;49473;50.772;8.768;2023-05-10T01:46:24;1.90;;;0.50;;
2386;SDS011;49473;50.772;8.768;2023-05-10T01:48:56;1.67;;;0.50;;
2386;SDS011;49473;50.772;8.768;2023-05-10T01:51:27;0.50;;;0.50;;
2386;SDS011;49473;50.772;8.768;2023-05-10T01:54:00;1.90;;;0.50;;
2386;SDS011;49473;50.772;8.768;2023-05-10T01:56:29;1.67;;;0.40;;
2386;SDS011;49473;50.772;8.768;2023-05-10T01:58:59;0.57;;;0.40;;
2386;SDS011;49473;50.772;8.768;2023-05-10T02:01:29;0.60;;;0.60;;
2386;SDS011;49473;50.772;8.768;2023-05-10T02:03:58;0.60;;;0.60;;
2386;SDS011;49473;50.772;8.768;2023-05-10T02:06:25;1.30;;;0.50;;
2386;SDS011;49473;50.772;8.768;2023-05-10T02:08:53;0.30;;;0.30;;
2386;SDS011;49473;50.772;8.768;2023-05-10T02:11:21;1.10;;;0.77;;
2386;SDS011;49473;50.772;8.768;2023-05-10T02:13:49;1.93;;;0.60;;
2386;SDS011;49473;50.772;8.768;2023-05-10T02:16:17;3.93;;;0.60;;
2386;SDS011;49473;50.772;8.768;2023-05-10T02:18:49;0.47;;;0.47;;
2386;SDS011;49473;50.772;8.768;2023-05-10T02:21:19;0.40;;;0.40;;
2386;SDS011;49473;50.772;8.768;2023-05-10T02:23:47;2.83;;;0.60;;
2386;SDS011;49473;50.772;8.768;2023-05-10T02:26:16;0.70;;;0.50;;
2386;SDS011;49473;50.772;8.768;2023-05-10T02:28:44;6.20;;;0.57;;
2386;SDS011;49473;50.772;8.768;2023-05-10T02:31:11;0.40;;;0.40;;
2386;SDS011;49473;50.772;8.768;2023-05-10T02:33:39;1.90;;;0.70;;
2386;SDS011;49473;50.772;8.768;2023-05-10T02:36:07;0.60;;;0.53;;
2386;SDS011;49473;50.772;8.768;2023-05-10T02:38:37;0.50;;;0.50;;
2386;SDS011;49473;50.772;8.768;2023-05-10T02:41:04;1.27;;;0.57;;
2386;SDS011;49473;50.772;8.768;2023-05-10T02:43:33;0.50;;;0.50;;
2386;SDS011;49473;50.772;8.768;2023-05-10T02:46:02;1.27;;;0.70;;
2386;SDS011;49473;50.772;8.768;2023-05-10T02:48:29;0.73;;;0.40;;
2386;SDS011;49473;50.772;8.768;2023-05-10T02:50:56;1.00;;;0.60;;
2386;SDS011;49473;50.772;8.768;2023-05-10T02:53:30;0.80;;;0.80;;
2386;SDS011;49473;50.772;8.768;2023-05-10T02:56:01;0.90;;;0.50;;
2386;SDS011;49473;50.772;8.768;2023-05-10T02:58:33;0.50;;;0.50;;
2386;SDS011;49473;50.772;8.768;2023-05-10T03:01:00;0.60;;;0.50;;
2386;SDS011;49473;50.772;8.768;2023-05-10T03:03:27;0.80;;;0.50;;
2386;SDS011;49473;50.772;8.768;2023-05-10T03:05:54;1.07;;;0.70;;
2386;SDS011;49473;50.772;8.768;2023-05-10T03:08:21;0.50;;;0.50;;
2386;SDS011;49473;50.772;8.768;2023-05-10T03:10:51;0.40;;;0.40;;
2386;SDS011;49473;50.772;8.768;2023-05-10T03:13:29;0.80;;;0.70;;
2386;SDS011;49473;50.772;8.768;2023-05-10T03:16:04;0.50;;;0.50;;
2386;SDS011;49473;50.772;8.768;2023-05-10T03:18:37;0.40;;;0.40;;
2386;SDS011;49473;50.772;8.768;2023-05-10T03:21:10;0.60;;;0.50;;
2386;SDS011;49473;50.772;8.768;2023-05-10T03:23:40;0.77;;;0.53;;
2386;SDS011;49473;50.772;8.768;2023-05-10T03:26:09;0.77;;;0.60;;
2386;SDS011;49473;50.772;8.768;2023-05-10T03:28:41;0.70;;;0.70;;
2386;SDS011;49473;50.772;8.768;2023-05-10T03:31:08;0.60;;;0.60;;
2386;SDS011;49473;50.772;8.768;2023-05-10T03:33:35;1.03;;;0.63;;
2386;SDS011;49473;50.772;8.768;2023-05-10T03:36:11;1.03;;;0.50;;
2386;SDS011;49473;50.772;8.768;2023-05-10T03:38:38;0.77;;;0.60;;
2386;SDS011;49473;50.772;8.768;2023-05-10T03:41:05;0.60;;;0.60;;
2386;SDS011;49473;50.772;8.768;2023-05-10T03:43:32;0.87;;;0.70;;
2386;SDS011;49473;50.772;8.768;2023-05-10T03:46:00;0.60;;;0.60;;
2386;SDS011;49473;50.772;8.768;2023-05-10T03:48:27;0.90;;;0.60;;
2386;SDS011;49473;50.772;8.768;2023-05-10T03:50:55;0.50;;;0.50;;
2386;SDS011;49473;50.772;8.768;2023-05-10T03:53:22;2.67;;;0.80;;
2386;SDS011;49473;50.772;8.768;2023-05-10T03:55:49;1.57;;;0.80;;
2386;SDS011;49473;50.772;8.768;2023-05-10T03:58:16;1.40;;;0.63;;
2386;SDS011;49473;50.772;8.768;2023-05-10T04:00:43;0.70;;;0.70;;
2386;SDS011;49473;50.772;8.768;2023-05-10T04:03:11;1.10;;;0.70;;
2386;SDS011;49473;50.772;8.768;2023-05-10T04:05:38;0.70;;;0.70;;
2386;SDS011;49473;50.772;8.768;2023-05-10T04:08:05;1.20;;;1.10;;
2386;SDS011;49473;50.772;8.768;2023-05-10T04:10:32;1.30;;;1.17;;
2386;SDS011;49473;50.772;8.768;2023-05-10T04:12:59;1.13;;;1.00;;
2386;SDS011;49473;50.772;8.768;2023-05-10T04:15:25;1.70;;;1.23;;
2386;SDS011;49473;50.772;8.768;2023-05-10T04:17:52;1.20;;;1.10;;
2386;SDS011;49473;50.772;8.768;2023-05-10T04:20:21;1.40;;;1.20;;
2386;SDS011;49473;50.772;8.768;2023-05-10T04:22:48;1.10;;;1.10;;
2386;SDS011;49473;50.772;8.768;2023-05-10T04:25:14;1.53;;;1.40;;
2386;SDS011;49473;50.772;8.768;2023-05-10T04:27:42;1.47;;;1.37;;
2386;SDS011;49473;50.772;8.768;2023-05-10T04:30:08;1.90;;;1.13;;
2386;SDS011;49473;50.772;8.768;2023-05-10T04:32:36;2.33;;;1.17;;
2386;SDS011;49473;50.772;8.768;2023-05-10T04:35:03;1.23;;;1.10;;
2386;SDS011;49473;50.772;8.768;2023-05-10T04:37:31;1.33;;;1.00;;
2386;SDS011;49473;50.772;8.768;2023-05-10T04:39:58;1.10;;;1.10;;
2386;SDS011;49473;50.772;8.768;2023-05-10T04:42:25;1.53;;;1.43;;
2386;SDS011;49473;50.772;8.768;2023-05-10T04:44:52;1.80;;;1.40;;
2386;SDS011;49473;50.772;8.768;2023-05-10T04:47:19;1.17;;;1.10;;
2386;SDS011;49473;50.772;8.768;2023-05-10T04:49:46;1.53;;;0.97;;
2386;SDS011;49473;50.772;8.768;2023-05-10T04:52:13;2.40;;;1.20;;
2386;SDS011;49473;50.772;8.768;2023-05-10T04:54:43;1.47;;;0.93;;
2386;SDS011;49473;50.772;8.768;2023-05-10T04:57:10;1.20;;;1.10;;
2386;SDS011;49473;50.772;8.768;2023-05-10T04:59:37;1.00;;;1.00;;
2386;SDS011;49473;50.772;8.768;2023-05-10T05:02:04;2.10;;;0.97;;
2386;SDS011;49473;50.772;8.768;2023-05-10T05:04:31;1.93;;;1.50;;
2386;SDS011;49473;50.772;8.768;2023-05-10T05:06:58;1.63;;;1.33;;
2386;SDS011;49473;50.772;8.768;2023-05-10T05:09:24;1.00;;;1.00;;
2386;SDS011;49473;50.772;8.768;2023-05-10T05:11:52;3.97;;;1.10;;
2386;SDS011;49473;50.772;8.768;2023-05-10T05:14:19;2.50;;;1.47;;
2386;SDS011;49473;50.772;8.768;2023-05-10T05:16:46;2.30;;;1.50;;
2386;SDS011;49473;50.772;8.768;2023-05-10T05:19:13;4.73;;;1.83;;
2386;SDS011;49473;50.772;8.768;2023-05-10T05:21:40;1.30;;;1.20;;
2386;SDS011;49473;50.772;8.768;2023-05-10T05:24:07;1.43;;;1.33;;
2386;SDS011;49473;50.772;8.768;2023-05-10T05:26:35;2.40;;;1.70;;
2386;SDS011;49473;50.772;8.768;2023-05-10T05:29:03;1.53;;;1.40;;
2386;SDS011;49473;50.772;8.768;2023-05-10T05:31:30;2.60;;;1.40;;
2386;SDS011;49473;50.772;8.768;2023-05-10T05:33:56;1.80;;;1.67;;
2386;SDS011;49473;50.772;8.768;2023-05-10T05:36:23;1.50;;;1.40;;
2386;SDS011;49473;50.772;8.768;2023-05-10T05:38:50;1.40;;;1.30;;
2386;SDS011;49473;50.772;8.768;2023-05-10T05:41:17;1.70;;;1.60;;
2386;SDS011;49473;50.772;8.768;2023-05-10T05:43:43;1.70;;;1.60;;
2386;SDS011;49473;50.772;8.768;2023-05-10T05:46:11;1.83;;;1.73;;
2386;SDS011;49473;50.772;8.768;2023-05-10T05:48:38;1.97;;;1.87;;
2386;SDS011;49473;50.772;8.768;2023-05-10T05:51:05;2.53;;;2.03;;
2386;SDS011;49473;50.772;8.768;2023-05-10T05:53:32;1.50;;;1.40;;
2386;SDS011;49473;50.772;8.768;2023-05-10T05:55:58;2.17;;;2.00;;
2386;SDS011;49473;50.772;8.768;2023-05-10T05:58:25;1.97;;;1.73;;
2386;SDS011;49473;50.772;8.768;2023-05-10T06:00:53;2.30;;;1.60;;
2386;SDS011;49473;50.772;8.768;2023-05-10T06:03:21;2.07;;;1.97;;
2386;SDS011;49473;50.772;8.768;2023-05-10T06:05:48;2.40;;;2.20;;
2386;SDS011;49473;50.772;8.768;2023-05-10T06:08:14;1.80;;;1.70;;
2386;SDS011;49473;50.772;8.768;2023-05-10T06:10:41;2.30;;;2.10;;
2386;SDS011;49473;50.772;8.768;2023-05-10T06:13:08;2.07;;;1.97;;
2386;SDS011;49473;50.772;8.768;2023-05-10T06:15:35;2.50;;;2.00;;
2386;SDS011;49473;50.772;8.768;2023-05-10T06:18:02;2.67;;;2.43;;
2386;SDS011;49473;50.772;8.768;2023-05-10T06:20:30;2.43;;;2.33;;
2386;SDS011;49473;50.772;8.768;2023-05-10T06:22:57;2.17;;;2.07;;
2386;SDS011;49473;50.772;8.768;2023-05-10T06:25:24;2.33;;;2.23;;
2386;SDS011;49473;50.772;8.768;2023-05-10T06:27:51;3.97;;;2.20;;
2386;SDS011;49473;50.772;8.768;2023-05-10T06:30:22;2.57;;;1.90;;
2386;SDS011;49473;50.772;8.768;2023-05-10T06:32:52;3.20;;;2.10;;
2386;SDS011;49473;50.772;8.768;2023-05-10T06:35:19;2.53;;;2.10;;
2386;SDS011;49473;50.772;8.768;2023-05-10T06:37:47;2.00;;;1.90;;
2386;SDS011;49473;50.772;8.768;2023-05-10T06:40:14;2.40;;;2.20;;
2386;SDS011;49473;50.772;8.768;2023-05-10T06:42:41;3.40;;;2.30;;
2386;SDS011;49473;50.772;8.768;2023-05-10T06:45:10;2.00;;;1.87;;
2386;SDS011;49473;50.772;8.768;2023-05-10T06:47:37;2.50;;;2.17;;
2386;SDS011;49473;50.772;8.768;2023-05-10T06:50:04;2.40;;;2.30;;
2386;SDS011;49473;50.772;8.768;2023-05-10T06:52:31;2.23;;;2.13;;
2386;SDS011;49473;50.772;8.768;2023-05-10T06:54:59;2.27;;;2.07;;
2386;SDS011;49473;50.772;8.768;2023-05-10T06:57:26;2.70;;;2.00;;
2386;SDS011;49473;50.772;8.768;2023-05-10T06:59:53;2.27;;;2.07;;
2386;SDS011;49473;50.772;8.768;2023-05-10T07:02:21;2.63;;;2.00;;
2386;SDS011;49473;50.772;8.768;2023-05-10T07:04:47;2.50;;;1.90;;
2386;SDS011;49473;50.772;8.768;2023-05-10T07:07:15;2.87;;;2.60;;
2386;SDS011;49473;50.772;8.768;2023-05-10T07:09:41;2.03;;;1.83;;
2386;SDS011;49473;50.772;8.768;2023-05-10T07:12:10;2.30;;;1.60;;
2386;SDS011;49473;50.772;8.768;2023-05-10T07:14:36;2.87;;;1.90;;
2386;SDS011;49473;50.772;8.768;2023-05-10T07:17:03;1.80;;;1.70;;
2386;SDS011;49473;50.772;8.768;2023-05-10T07:19:30;4.10;;;1.73;;
2386;SDS011;49473;50.772;8.768;2023-05-10T07:21:57;2.33;;;1.80;;
2386;SDS011;49473;50.772;8.768;2023-05-10T07:24:24;1.90;;;1.80;;
2386;SDS011;49473;50.772;8.768;2023-05-10T07:26:51;3.37;;;2.00;;
2386;SDS011;49473;50.772;8.768;2023-05-10T07:29:19;4.43;;;2.10;;
2386;SDS011;49473;50.772;8.768;2023-05-10T07:31:46;4.30;;;1.80;;
2386;SDS011;49473;50.772;8.768;2023-05-10T07:34:12;2.73;;;1.43;;
2386;SDS011;49473;50.772;8.768;2023-05-10T07:36:40;2.50;;;1.73;;
2386;SDS011;49473;50.772;8.768;2023-05-10T07:39:06;3.23;;;1.67;;
2386;SDS011;49473;50.772;8.768;2023-05-10T07:41:33;2.20;;;1.27;;
2386;SDS011;49473;50.772;8.768;2023-05-10T07:44:00;6.13;;;1.90;;
2386;SDS011;49473;50.772;8.768;2023-05-10T07:46:28;2.83;;;1.83;;
2386;SDS011;49473;50.772;8.768;2023-05-10T07:48:55;6.47;;;1.97;;
2386;SDS011;49473;50.772;8.768;2023-05-10T07:51:22;3.37;;;1.63;;
2386;SDS011;49473;50.772;8.768;2023-05-10T07:53:49;1.77;;;1.60;;
2386;SDS011;49473;50.772;8.768;2023-05-10T07:56:22;1.60;;;1.50;;
2386;SDS011;49473;50.772;8.768;2023-05-10T07:58:52;1.10;;;1.00;;
2386;SDS011;49473;50.772;8.768;2023-05-10T08:01:19;1.50;;;1.37;;
2386;SDS011;49473;50.772;8.768;2023-05-10T08:03:48;2.80;;;1.30;;
2386;SDS011;49473;50.772;8.768;2023-05-10T08:06:16;1.70;;;1.10;;
2386;SDS011;49473;50.772;8.768;2023-05-10T08:08:44;1.40;;;1.30;;
2386;SDS011;49473;50.772;8.768;2023-05-10T08:11:15;1.83;;;1.43;;
2386;SDS011;49473;50.772;8.768;2023-05-10T08:13:42;1.90;;;1.60;;
2386;SDS011;49473;50.772;8.768;2023-05-10T08:16:09;1.53;;;1.27;;
2386;SDS011;49473;50.772;8.768;2023-05-10T08:18:36;3.90;;;1.13;;
2386;SDS011;49473;50.772;8.768;2023-05-10T08:21:05;1.43;;;1.33;;
2386;SDS011;49473;50.772;8.768;2023-05-10T08:23:32;1.20;;;1.10;;
2386;SDS011;49473;50.772;8.768;2023-05-10T08:25:59;1.53;;;1.30;;
2386;SDS011;49473;50.772;8.768;2023-05-10T08:28:26;1.90;;;1.40;;
2386;SDS011;49473;50.772;8.768;2023-05-10T08:30:53;2.00;;;1.10;;
2386;SDS011;49473;50.772;8.768;2023-05-10T08:33:20;2.43;;;1.00;;
2386;SDS011;49473;50.772;8.768;2023-05-10T08:35:46;2.47;;;1.50;;
2386;SDS011;49473;50.772;8.768;2023-05-10T08:38:14;1.30;;;1.20;;
2386;SDS011;49473;50.772;8.768;2023-05-10T08:40:42;1.33;;;1.23;;
2386;SDS011;49473;50.772;8.768;2023-05-10T08:43:11;1.40;;;1.30;;
2386;SDS011;49473;50.772;8.768;2023-05-10T08:45:40;2.50;;;1.30;;
2386;SDS011;49473;50.772;8.768;2023-05-10T08:48:08;1.70;;;1.43;;
2386;SDS011;49473;50.772;8.768;2023-05-10T08:50:36;2.13;;;1.50;;
2386;SDS011;49473;50.772;8.768;2023-05-10T08:53:04;1.73;;;1.13;;
2386;SDS011;49473;50.772;8.768;2023-05-10T08:55:33;1.17;;;1.17;;
2386;SDS011;49473;50.772;8.768;2023-05-10T08:58:01;4.23;;;1.67;;
2386;SDS011;49473;50.772;8.768;2023-05-10T09:00:29;2.47;;;1.57;;
2386;SDS011;49473;50.772;8.768;2023-05-10T09:02:56;2.50;;;1.40;;
2386;SDS011;49473;50.772;8.768;2023-05-10T09:05:24;1.57;;;1.30;;
2386;SDS011;49473;50.772;8.768;2023-05-10T09:07:51;2.50;;;1.50;;
2386;SDS011;49473;50.772;8.768;2023-05-10T09:10:18;1.50;;;1.30;;
2386;SDS011;49473;50.772;8.768;2023-05-10T09:12:46;1.90;;;1.37;;
2386;SDS011;49473;50.772;8.768;2023-05-10T09:15:15;2.07;;;1.70;;
2386;SDS011;49473;50.772;8.768;2023-05-10T09:17:44;2.90;;;2.07;;
2386;SDS011;49473;50.772;8.768;2023-05-10T09:20:11;3.10;;;1.63;;
2386;SDS011;49473;50.772;8.768;2023-05-10T09:22:38;2.20;;;2.00;;
2386;SDS011;49473;50.772;8.768;2023-05-10T09:25:06;2.30;;;1.97;;
2386;SDS011;49473;50.772;8.768;2023-05-10T09:27:34;3.30;;;2.47;;
2386;SDS011;49473;50.772;8.768;2023-05-10T09:30:02;2.37;;;2.17;;
2386;SDS011;49473;50.772;8.768;2023-05-10T09:32:36;2.43;;;2.23;;
2386;SDS011;49473;50.772;8.768;2023-05-10T09:35:07;4.13;;;2.20;;
2386;SDS011;49473;50.772;8.768;2023-05-10T09:37:35;2.50;;;2.40;;
2386;SDS011;49473;50.772;8.768;2023-05-10T09:40:04;4.30;;;2.63;;
2386;SDS011;49473;50.772;8.768;2023-05-10T09:42:32;2.20;;;2.10;;
2386;SDS011;49473;50.772;8.768;2023-05-10T09:45:00;2.43;;;2.23;;
2386;SDS011;49473;50.772;8.768;2023-05-10T09:47:31;2.63;;;2.50;;
2386;SDS011;49473;50.772;8.768;2023-05-10T09:49:59;3.30;;;2.20;;
2386;SDS011;49473;50.772;8.768;2023-05-10T09:52:29;3.40;;;1.90;;
2386;SDS011;49473;50.772;8.768;2023-05-10T09:54:56;3.43;;;2.30;;
2386;SDS011;49473;50.772;8.768;2023-05-10T09:57:23;2.60;;;2.00;;
2386;SDS011;49473;50.772;8.768;2023-05-10T09:59:51;2.47;;;2.07;;
2386;SDS011;49473;50.772;8.768;2023-05-10T10:02:20;2.33;;;2.13;;
2386;SDS011;49473;50.772;8.768;2023-05-10T10:04:48;2.40;;;2.17;;
2386;SDS011;49473;50.772;8.768;2023-05-10T10:07:17;3.53;;;2.40;;
2386;SDS011;49473;50.772;8.768;2023-05-10T10:09:50;3.27;;;1.93;;
2386;SDS011;49473;50.772;8.768;2023-05-10T10:12:17;2.83;;;2.40;;
2386;SDS011;49473;50.772;8.768;2023-05-10T10:14:45;3.83;;;2.57;;
2386;SDS011;49473;50.772;8.768;2023-05-10T10:17:14;2.37;;;2.20;;
2386;SDS011;49473;50.772;8.768;2023-05-10T10:19:42;3.00;;;2.70;;
2386;SDS011;49473;50.772;8.768;2023-05-10T10:22:11;2.13;;;1.80;;
2386;SDS011;49473;50.772;8.768;2023-05-10T10:24:38;2.00;;;1.90;;
2386;SDS011;49473;50.772;8.768;2023-05-10T10:27:14;2.50;;;1.93;;
2386;SDS011;49473;50.772;8.768;2023-05-10T10:29:48;2.40;;;2.00;;
2386;SDS011;49473;50.772;8.768;2023-05-10T10:32:25;2.00;;;1.80;;
2386;SDS011;49473;50.772;8.768;2023-05-10T10:35:03;2.57;;;2.37;;
2386;SDS011;49473;50.772;8.768;2023-05-10T10:37:46;2.40;;;2.10;;
2386;SDS011;49473;50.772;8.768;2023-05-10T10:40:23;2.50;;;2.30;;
2386;SDS011;49473;50.772;8.768;2023-05-10T10:42:51;3.33;;;2.13;;
2386;SDS011;49473;50.772;8.768;2023-05-10T10:45:19;2.40;;;2.07;;
2386;SDS011;49473;50.772;8.768;2023-05-10T10:47:47;2.80;;;2.60;;
2386;SDS011;49473;50.772;8.768;2023-05-10T10:50:16;2.50;;;2.30;;
2386;SDS011;49473;50.772;8.768;2023-05-10T10:52:43;4.60;;;2.63;;
2386;SDS011;49473;50.772;8.768;2023-05-10T10:55:10;2.60;;;2.40;;
2386;SDS011;49473;50.772;8.768;2023-05-10T10:57:43;2.97;;;2.40;;
2386;SDS011;49473;50.772;8.768;2023-05-10T11:00:17;2.90;;;2.67;;
2386;SDS011;49473;50.772;8.768;2023-05-10T11:02:46;3.17;;;2.90;;
2386;SDS011;49473;50.772;8.768;2023-05-10T11:08:14;4.23;;;3.13;;
2386;SDS011;49473;50.772;8.768;2023-05-10T11:10:53;4.30;;;3.00;;
2386;SDS011;49473;50.772;8.768;2023-05-10T11:13:29;3.17;;;2.90;;
2386;SDS011;49473;50.772;8.768;2023-05-10T11:15:57;2.50;;;2.30;;
2386;SDS011;49473;50.772;8.768;2023-05-10T11:18:25;3.87;;;2.83;;
2386;SDS011;49473;50.772;8.768;2023-05-10T11:20:56;2.30;;;2.20;;
2386;SDS011;49473;50.772;8.768;2023-05-10T11:23:28;3.47;;;2.07;;
2386;SDS011;49473;50.772;8.768;2023-05-10T11:25:56;4.33;;;1.93;;
2386;SDS011;49473;50.772;8.768;2023-05-10T11:28:23;2.80;;;2.03;;
2386;SDS011;49473;50.772;8.768;2023-05-10T11:30:51;2.50;;;2.30;;
2386;SDS011;49473;50.772;8.768;2023-05-10T11:33:19;3.83;;;2.07;;
2386;SDS011;49473;50.772;8.768;2023-05-10T11:35:46;3.30;;;1.77;;
2386;SDS011;49473;50.772;8.768;2023-05-10T11:38:14;1.87;;;1.77;;
2386;SDS011;49473;50.772;8.768;2023-05-10T11:40:41;1.90;;;1.80;;
2386;SDS011;49473;50.772;8.768;2023-05-10T11:43:08;2.07;;;1.90;;
2386;SDS011;49473;50.772;8.768;2023-05-10T11:45:36;2.23;;;2.13;;
2386;SDS011;49473;50.772;8.768;2023-05-10T11:48:04;2.13;;;2.03;;
2386;SDS011;49473;50.772;8.768;2023-05-10T11:50:30;3.10;;;2.57;;
2386;SDS011;49473;50.772;8.768;2023-05-10T11:52:59;2.83;;;2.50;;
2386;SDS011;49473;50.772;8.768;2023-05-10T11:55:27;3.10;;;2.90;;
2386;SDS011;49473;50.772;8.768;2023-05-10T11:57:55;2.90;;;2.70;;
2386;SDS011;49473;50.772;8.768;2023-05-10T12:00:26;2.70;;;2.50;;
2386;SDS011;49473;50.772;8.768;2023-05-10T12:02:52;2.97;;;2.77;;
2386;SDS011;49473;50.772;8.768;2023-05-10T12:05:19;2.47;;;2.37;;
2386;SDS011;49473;50.772;8.768;2023-05-10T12:07:46;2.67;;;2.57;;
2386;SDS011;49473;50.772;8.768;2023-05-10T12:10:13;4.23;;;2.13;;
2386;SDS011;49473;50.772;8.768;2023-05-10T12:12:42;1.83;;;1.73;;
2386;SDS011;49473;50.772;8.768;2023-05-10T12:15:11;2.13;;;1.90;;
2386;SDS011;49473;50.772;8.768;2023-05-10T12:17:38;1.97;;;1.87;;
2386;SDS011;49473;50.772;8.768;2023-05-10T12:20:12;2.00;;;1.80;;
2386;SDS011;49473;50.772;8.768;2023-05-10T12:22:40;1.80;;;1.70;;
2386;SDS011;49473;50.772;8.768;2023-05-10T12:25:08;2.30;;;1.67;;
2386;SDS011;49473;50.772;8.768;2023-05-10T12:27:35;1.80;;;1.43;;
2386;SDS011;49473;50.772;8.768;2023-05-10T12:30:04;1.80;;;1.70;;
2386;SDS011;49473;50.772;8.768;2023-05-10T12:32:38;1.37;;;1.37;;
2386;SDS011;49473;50.772;8.768;2023-05-10T12:35:06;1.50;;;1.40;;
2386;SDS011;49473;50.772;8.768;2023-05-10T12:37:33;3.33;;;1.67;;
2386;SDS011;49473;50.772;8.768;2023-05-10T12:40:05;1.67;;;1.57;;
2386;SDS011;49473;50.772;8.768;2023-05-10T12:42:33;2.00;;;1.90;;
2386;SDS011;49473;50.772;8.768;2023-05-10T12:45:00;1.80;;;1.70;;
2386;SDS011;49473;50.772;8.768;2023-05-10T12:47:28;2.07;;;1.97;;
2386;SDS011;49473;50.772;8.768;2023-05-10T12:49:55;3.30;;;2.13;;
2386;SDS011;49473;50.772;8.768;2023-05-10T12:52:23;3.17;;;2.10;;
2386;SDS011;49473;50.772;8.768;2023-05-10T12:54:51;2.30;;;1.83;;
2386;SDS011;49473;50.772;8.768;2023-05-10T12:57:17;2.37;;;2.20;;
2386;SDS011;49473;50.772;8.768;2023-05-10T12:59:44;3.43;;;1.90;;
2386;SDS011;49473;50.772;8.768;2023-05-10T13:02:11;3.20;;;1.93;;
2386;SDS011;49473;50.772;8.768;2023-05-10T13:04:40;3.33;;;2.10;;
2386;SDS011;49473;50.772;8.768;2023-05-10T13:07:07;1.23;;;0.70;;
2386;SDS011;49473;50.772;8.768;2023-05-10T13:09:34;2.60;;;1.00;;
2386;SDS011;49473;50.772;8.768;2023-05-10T13:12:01;1.07;;;0.90;;
2386;SDS011;49473;50.772;8.768;2023-05-10T13:14:28;1.53;;;1.07;;
2386;SDS011;49473;50.772;8.768;2023-05-10T13:16:56;0.80;;;0.80;;
2386;SDS011;49473;50.772;8.768;2023-05-10T13:19:23;1.80;;;1.00;;
2386;SDS011;49473;50.772;8.768;2023-05-10T13:21:51;0.90;;;0.90;;
2386;SDS011;49473;50.772;8.768;2023-05-10T13:24:17;0.90;;;0.90;;
2386;SDS011;49473;50.772;8.768;2023-05-10T13:26:44;0.73;;;0.60;;
2386;SDS011;49473;50.772;8.768;2023-05-10T13:29:12;1.10;;;1.00;;
2386;SDS011;49473;50.772;8.768;2023-05-10T13:31:39;1.73;;;1.20;;
2386;SDS011;49473;50.772;8.768;2023-05-10T13:34:05;1.03;;;0.63;;
2386;SDS011;49473;50.772;8.768;2023-05-10T13:36:32;0.80;;;0.70;;
2386;SDS011;49473;50.772;8.768;2023-05-10T13:39:00;0.60;;;0.50;;
2386;SDS011;49473;50.772;8.768;2023-05-10T13:41:28;0.60;;;0.57;;
2386;SDS011;49473;50.772;8.768;2023-05-10T13:43:55;1.17;;;0.50;;
2386;SDS011;49473;50.772;8.768;2023-05-10T13:46:21;0.97;;;0.87;;
2386;SDS011;49473;50.772;8.768;2023-05-10T13:48:48;1.83;;;0.80;;
2386;SDS011;49473;50.772;8.768;2023-05-10T13:51:15;0.83;;;0.70;;
2386;SDS011;49473;50.772;8.768;2023-05-10T13:53:42;0.60;;;0.60;;
2386;SDS011;49473;50.772;8.768;2023-05-10T13:56:10;1.17;;;0.50;;
2386;SDS011;49473;50.772;8.768;2023-05-10T13:58:37;0.60;;;0.60;;
2386;SDS011;49473;50.772;8.768;2023-05-10T14:01:03;1.47;;;0.70;;
2386;SDS011;49473;50.772;8.768;2023-05-10T14:03:30;0.63;;;0.63;;
2386;SDS011;49473;50.772;8.768;2023-05-10T14:05:57;1.97;;;0.67;;
2386;SDS011;49473;50.772;8.768;2023-05-10T14:08:24;0.50;;;0.50;;
2386;SDS011;49473;50.772;8.768;2023-05-10T14:10:52;1.27;;;0.50;;
2386;SDS011;49473;50.772;8.768;2023-05-10T14:13:20;0.90;;;0.60;;
2386;SDS011;49473;50.772;8.768;2023-05-10T14:15:46;0.90;;;0.73;;
2386;SDS011;49473;50.772;8.768;2023-05-10T14:18:13;1.90;;;0.87;;
2386;SDS011;49473;50.772;8.768;2023-05-10T14:20:40;0.70;;;0.70;;
2386;SDS011;49473;50.772;8.768;2023-05-10T14:23:06;0.80;;;0.80;;
2386;SDS011;49473;50.772;8.768;2023-05-10T14:25:33;1.23;;;1.00;;
2386;SDS011;49473;50.772;8.768;2023-05-10T14:28:00;0.90;;;0.90;;
2386;SDS011;49473;50.772;8.768;2023-05-10T14:30:28;0.67;;;0.67;;
2386;SDS011;49473;50.772;8.768;2023-05-10T14:32:55;0.80;;;0.80;;
2386;SDS011;49473;50.772;8.768;2023-05-10T14:35:23;1.23;;;0.70;;
2386;SDS011;49473;50.772;8.768;2023-05-10T14:37:50;1.70;;;0.80;;
2386;SDS011;49473;50.772;8.768;2023-05-10T14:40:16;0.60;;;0.60;;
2386;SDS011;49473;50.772;8.768;2023-05-10T14:42:43;1.30;;;0.70;;
2386;SDS011;49473;50.772;8.768;2023-05-10T14:45:10;0.80;;;0.63;;
2386;SDS011;49473;50.772;8.768;2023-05-10T14:47:38;0.90;;;0.80;;
2386;SDS011;49473;50.772;8.768;2023-05-10T14:50:05;3.20;;;1.00;;
2386;SDS011;49473;50.772;8.768;2023-05-10T14:52:33;1.97;;;0.90;;
2386;SDS011;49473;50.772;8.768;2023-05-10T14:55:00;3.40;;;0.97;;
2386;SDS011;49473;50.772;8.768;2023-05-10T14:57:26;1.20;;;1.03;;
2386;SDS011;49473;50.772;8.768;2023-05-10T14:59:54;2.20;;;0.90;;
2386;SDS011;49473;50.772;8.768;2023-05-10T15:02:21;0.87;;;0.70;;
2386;SDS011;49473;50.772;8.768;2023-05-10T15:04:49;2.17;;;0.80;;
2386;SDS011;49473;50.772;8.768;2023-05-10T15:07:16;1.23;;;0.90;;
2386;SDS011;49473;50.772;8.768;2023-05-10T15:09:43;1.00;;;1.00;;
2386;SDS011;49473;50.772;8.768;2023-05-10T15:12:10;0.90;;;0.73;;